Time,TemperatureF,DewpointF,PressureIn,WindDirection,WindDirectionDegrees,WindSpeedMPH,WindSpeedGustMPH,Humidity,HourlyPrecipIn,Conditions,Clouds,dailyrainin,SoftwareType,DateUTC
2013-07-06 00:03:00,74.5,71.4,30.15,SW,225,0.0,0.0,90,0.00,,,0.00,WSDL version 420,2013-07-06 04:03:00,
2013-07-06 00:07:00,74.4,71.2,30.15,SW,225,0.0,0.0,90,0.00,,,0.00,WSDL version 420,2013-07-06 04:07:00,
2013-07-06 00:10:00,74.3,71.2,30.15,SW,225,0.0,0.0,90,0.00,,,0.00,WSDL version 420,2013-07-06 04:10:00,
2013-07-06 00:16:00,74.3,71.2,30.15,SW,225,0.0,0.0,90,0.00,,,0.00,WSDL version 420,2013-07-06 04:16:00,
2013-07-06 00:25:00,74.2,71.3,30.15,SW,225,0.0,0.0,90,0.00,,,0.00,WSDL version 420,2013-07-06 04:25:00,
2013-07-06 00:32:00,-999.0,-99.9,30.15,SW,225,0.0,0.0,-999,0.00,,,0.00,WSDL version 420,2013-07-06 04:32:00,
2013-07-06 00:35:00,74.1,71.4,30.15,SW,225,0.0,0.0,91,0.00,,,0.00,WSDL version 420,2013-07-06 04:35:00,
2013-07-06 00:41:00,74.1,71.4,30.15,SW,225,0.0,0.0,91,-99.99,,,-99.99,WSDL version 420,2013-07-06 04:41:00,
2013-07-06 00:48:00,74.2,71.4,30.15,SW,225,0.0,0.0,91,-99.99,,,-99.99,WSDL version 420,2013-07-06 04:48:00,
2013-07-06 00:54:00,74.1,71.4,30.15,SW,225,0.0,0.0,91,-99.99,,,-99.99,WSDL version 420,2013-07-06 04:54:00,
2013-07-06 01:02:00,74.1,71.4,30.15,SW,225,0.0,0.0,91,0.00,,,0.00,WSDL version 420,2013-07-06 05:02:00,
2013-07-06 01:08:00,-999.0,-99.9,30.15,SW,225,0.0,0.0,-999,0.00,,,0.00,WSDL version 420,2013-07-06 05:08:00,
2013-07-06 01:15:00,74.0,71.3,30.15,SW,225,0.0,0.0,91,0.00,,,0.00,WSDL version 420,2013-07-06 05:15:00,
2013-07-06 01:23:00,73.9,71.4,30.15,SW,225,0.0,0.0,91,0.00,,,0.00,WSDL version 420,2013-07-06 05:23:00,
2013-07-06 01:29:00,74.0,71.6,30.15,SW,225,0.0,0.0,92,-99.99,,,-99.99,WSDL version 420,2013-07-06 05:29:00,
2013-07-06 01:37:00,73.9,71.5,30.15,SW,225,0.0,0.0,92,0.00,,,0.00,WSDL version 420,2013-07-06 05:37:00,
2013-07-06 01:41:00,73.9,71.5,30.15,WNW,293,0.0,0.0,92,0.00,,,0.00,WSDL version 420,2013-07-06 05:41:00,
2013-07-06 01:49:00,-999.0,-99.9,30.15,WNW,293,0.0,0.0,-999,0.00,,,0.00,WSDL version 420,2013-07-06 05:49:00,
2013-07-06 01:57:00,73.8,71.4,30.15,WNW,293,0.0,0.0,92,0.00,,,0.00,WSDL version 420,2013-07-06 05:57:00,
2013-07-06 02:05:00,73.8,71.5,30.15,WNW,293,0.0,0.0,92,0.00,,,0.00,WSDL version 420,2013-07-06 06:05:00,
2013-07-06 02:12:00,73.8,71.7,30.15,WNW,293,0.0,0.0,93,0.00,,,0.00,WSDL version 420,2013-07-06 06:12:00,
2013-07-06 02:18:00,73.5,71.3,-100.00,WNW,293,0.0,0.0,92,0.00,,,0.00,WSDL version 420,2013-07-06 06:18:00,
2013-07-06 02:25:00,-999.0,-99.9,30.15,WNW,293,0.0,0.0,-999,0.00,,,0.00,WSDL version 420,2013-07-06 06:25:00,
2013-07-06 02:32:00,73.4,71.4,30.15,WNW,293,0.0,0.0,93,0.00,,,0.00,WSDL version 420,2013-07-06 06:32:00,
2013-07-06 02:41:00,-999.0,-99.9,30.15,WNW,293,0.0,0.0,-999,0.00,,,0.00,WSDL version 420,2013-07-06 06:41:00,
2013-07-06 02:47:00,-999.0,-99.9,30.15,WNW,293,0.0,0.0,-999,0.00,,,0.00,WSDL version 420,2013-07-06 06:47:00,
2013-07-06 02:53:00,73.3,71.4,30.15,WNW,293,0.0,0.0,94,0.00,,,0.00,WSDL version 420,2013-07-06 06:53:00,
2013-07-06 03:00:00,73.2,71.5,-100.00,WNW,293,0.0,0.0,94,0.00,,,0.00,WSDL version 420,2013-07-06 07:00:00,
2013-07-06 03:06:00,73.0,71.3,30.15,WNW,293,0.0,0.0,94,0.00,,,0.00,WSDL version 420,2013-07-06 07:06:00,
2013-07-06 03:13:00,-999.0,-99.9,30.15,WNW,293,0.0,0.0,-999,0.00,,,0.00,WSDL version 420,2013-07-06 07:13:00,
2013-07-06 03:19:00,73.0,71.3,30.15,WNW,293,0.0,0.0,94,0.00,,,0.00,WSDL version 420,2013-07-06 07:19:00,
2013-07-06 03:26:00,-999.0,-99.9,30.15,WNW,293,0.0,0.0,-999,0.00,,,0.00,WSDL version 420,2013-07-06 07:26:00,
2013-07-06 03:33:00,73.0,71.3,30.15,WNW,293,0.0,0.0,96,0.00,,,0.00,WSDL version 420,2013-07-06 07:33:00,
2013-07-06 03:40:00,72.9,71.2,30.15,WNW,293,0.0,0.0,94,0.00,,,0.00,WSDL version 420,2013-07-06 07:40:00,
2013-07-06 03:46:00,72.9,71.5,30.15,WNW,293,0.0,0.0,96,0.00,,,0.00,WSDL version 420,2013-07-06 07:46:00,
2013-07-06 03:53:00,72.9,71.2,30.15,WNW,293,0.0,0.0,94,0.00,,,0.00,WSDL version 420,2013-07-06 07:53:00,
2013-07-06 03:59:00,72.7,71.0,30.15,WNW,293,0.0,0.0,94,0.00,,,0.00,WSDL version 420,2013-07-06 07:59:00,
2013-07-06 04:06:00,-999.0,-99.9,30.15,WNW,293,0.0,0.0,-999,0.00,,,0.00,WSDL version 420,2013-07-06 08:06:00,
2013-07-06 04:12:00,72.6,71.1,30.12,WNW,293,0.0,0.0,96,0.00,,,0.00,WSDL version 420,2013-07-06 08:12:00,
2013-07-06 04:19:00,-999.0,-99.9,30.12,WNW,293,0.0,0.0,-999,0.00,,,0.00,WSDL version 420,2013-07-06 08:19:00,
2013-07-06 04:25:00,72.3,71.0,30.12,WNW,293,0.0,0.0,96,-99.99,,,-99.99,WSDL version 420,2013-07-06 08:25:00,
2013-07-06 04:32:00,72.4,71.1,30.12,WNW,293,0.0,0.0,96,0.00,,,0.00,WSDL version 420,2013-07-06 08:32:00,
2013-07-06 04:40:00,72.3,71.0,30.12,WNW,293,0.0,0.0,96,0.00,,,0.00,WSDL version 420,2013-07-06 08:40:00,
2013-07-06 04:46:00,72.4,71.1,30.12,WNW,293,0.0,0.0,96,0.00,,,0.00,WSDL version 420,2013-07-06 08:46:00,
2013-07-06 04:53:00,72.3,71.0,30.12,WNW,293,0.0,0.0,96,0.00,,,0.00,WSDL version 420,2013-07-06 08:53:00,
2013-07-06 04:59:00,72.4,71.1,30.12,WNW,293,0.0,0.0,96,0.00,,,0.00,WSDL version 420,2013-07-06 08:59:00,
2013-07-06 05:06:00,-999.0,-99.9,30.12,WNW,293,0.0,0.0,-999,0.00,,,0.00,WSDL version 420,2013-07-06 09:06:00,
2013-07-06 05:12:00,72.3,71.0,30.12,North,-999,-999.0,-999.0,96,0.00,,,0.00,WSDL version 420,2013-07-06 09:12:00,
2013-07-06 05:19:00,72.3,71.0,30.12,WNW,293,0.0,0.0,96,0.00,,,0.00,WSDL version 420,2013-07-06 09:19:00,
2013-07-06 05:27:00,72.3,71.0,30.12,WNW,293,0.0,0.0,96,0.00,,,0.00,WSDL version 420,2013-07-06 09:27:00,
2013-07-06 05:36:00,72.3,71.0,30.12,WNW,293,0.0,0.0,96,0.00,,,0.00,WSDL version 420,2013-07-06 09:36:00,
2013-07-06 05:43:00,-999.0,-99.9,30.15,WNW,293,0.0,0.0,-999,0.00,,,0.00,WSDL version 420,2013-07-06 09:43:00,
2013-07-06 05:49:00,72.1,70.8,30.15,WNW,293,0.0,0.0,96,-99.99,,,-99.99,WSDL version 420,2013-07-06 09:49:00,
2013-07-06 05:56:00,72.2,70.9,30.15,WNW,293,0.0,0.0,96,-99.99,,,-99.99,WSDL version 420,2013-07-06 09:56:00,
2013-07-06 06:02:00,72.1,70.8,30.15,WNW,293,0.0,0.0,96,0.00,,,0.00,WSDL version 420,2013-07-06 10:02:00,
2013-07-06 06:09:00,72.1,70.8,30.15,WNW,293,0.0,0.0,96,0.00,,,0.00,WSDL version 420,2013-07-06 10:09:00,
2013-07-06 06:15:00,72.2,70.9,30.15,WNW,293,0.0,0.0,96,0.00,,,0.00,WSDL version 420,2013-07-06 10:15:00,
2013-07-06 06:22:00,72.3,71.0,30.15,WNW,293,0.0,0.0,96,0.00,,,0.00,WSDL version 420,2013-07-06 10:22:00,
2013-07-06 06:30:00,72.3,71.0,30.12,WNW,293,0.0,0.0,96,0.00,,,0.00,WSDL version 420,2013-07-06 10:30:00,
2013-07-06 06:36:00,72.3,71.0,30.12,WNW,293,0.0,0.0,96,-99.99,,,-99.99,WSDL version 420,2013-07-06 10:36:00,
2013-07-06 06:43:00,72.4,70.9,30.12,WNW,293,0.0,0.0,94,-99.99,,,-99.99,WSDL version 420,2013-07-06 10:43:00,
2013-07-06 06:49:00,72.3,70.6,30.12,North,-999,-999.0,-999.0,94,0.00,,,0.00,WSDL version 420,2013-07-06 10:49:00,
2013-07-06 06:56:00,72.4,71.1,30.12,WNW,293,0.0,0.0,96,0.00,,,0.00,WSDL version 420,2013-07-06 10:56:00,
2013-07-06 07:02:00,73.0,71.6,30.15,SE,135,0.0,0.0,96,0.00,,,0.00,WSDL version 420,2013-07-06 11:02:00,
2013-07-06 07:09:00,73.2,71.9,30.15,SE,135,0.0,0.0,96,-99.99,,,-99.99,WSDL version 420,2013-07-06 11:09:00,
2013-07-06 07:16:00,73.5,72.0,30.12,SE,135,0.0,0.0,96,0.00,,,0.00,WSDL version 420,2013-07-06 11:16:00,
2013-07-06 07:22:00,73.9,72.2,-100.00,SE,135,0.0,0.0,94,0.00,,,0.00,WSDL version 420,2013-07-06 11:22:00,
2013-07-06 07:29:00,74.2,72.5,30.15,SE,135,0.0,0.0,94,-99.99,,,-99.99,WSDL version 420,2013-07-06 11:29:00,
2013-07-06 07:35:00,74.6,72.9,30.15,SE,135,0.0,0.0,94,0.00,,,0.00,WSDL version 420,2013-07-06 11:35:00,
2013-07-06 07:42:00,-999.0,-99.9,30.12,South,180,0.0,0.0,-999,0.00,,,0.00,WSDL version 420,2013-07-06 11:42:00,
2013-07-06 07:50:00,75.7,74.0,30.12,ESE,105,2.5,2.9,94,0.00,,,0.00,WSDL version 420,2013-07-06 11:50:00,
2013-07-06 07:58:00,76.8,74.6,30.12,SE,146,2.5,2.9,92,0.00,,,0.00,WSDL version 420,2013-07-06 11:58:00,
2013-07-06 08:05:00,77.3,74.8,30.12,SSE,158,2.9,3.4,92,0.00,,,0.00,WSDL version 420,2013-07-06 12:05:00,
2013-07-06 08:11:00,77.9,74.9,30.12,SE,135,0.0,3.4,90,-99.99,,,-99.99,WSDL version 420,2013-07-06 12:11:00,
2013-07-06 08:19:00,78.1,74.9,30.12,SE,135,0.0,0.0,90,0.00,,,0.00,WSDL version 420,2013-07-06 12:19:00,
2013-07-06 08:26:00,78.4,74.7,30.12,SE,135,2.5,2.5,88,0.00,,,0.00,WSDL version 420,2013-07-06 12:26:00,
2013-07-06 08:32:00,78.7,75.0,30.15,South,180,2.7,2.7,88,0.00,,,0.00,WSDL version 420,2013-07-06 12:32:00,
2013-07-06 08:41:00,79.1,75.1,30.15,ESE,113,0.0,2.7,88,0.00,,,0.00,WSDL version 420,2013-07-06 12:41:00,
2013-07-06 08:49:00,79.4,75.3,30.15,ESE,113,2.2,2.2,88,0.00,,,0.00,WSDL version 420,2013-07-06 12:49:00,
2013-07-06 08:55:00,79.8,75.5,30.15,SE,135,1.6,2.2,87,0.00,,,0.00,WSDL version 420,2013-07-06 12:55:00,
2013-07-06 09:03:00,80.3,75.6,30.15,ESE,113,0.7,1.6,84,0.00,,,0.00,WSDL version 420,2013-07-06 13:03:00,
2013-07-06 09:10:00,80.6,75.3,30.15,SE,135,1.1,3.8,83,-99.99,,,-99.99,WSDL version 420,2013-07-06 13:10:00,
2013-07-06 09:17:00,80.7,75.2,30.15,WSW,248,0.0,3.8,83,0.00,,,0.00,WSDL version 420,2013-07-06 13:17:00,
2013-07-06 09:23:00,-999.0,-99.9,30.15,East,90,3.1,3.6,-999,-99.99,,,-99.99,WSDL version 420,2013-07-06 13:23:00,
2013-07-06 09:30:00,81.5,74.0,30.12,SE,135,3.5,3.8,78,0.00,,,0.00,WSDL version 420,2013-07-06 13:30:00,
2013-07-06 09:36:00,81.6,74.6,30.12,South,180,2.5,3.8,79,0.00,,,0.00,WSDL version 420,2013-07-06 13:36:00,
2013-07-06 09:45:00,81.8,74.8,30.12,SE,146,0.4,2.5,79,0.00,,,0.00,WSDL version 420,2013-07-06 13:45:00,
2013-07-06 09:53:00,81.9,74.3,30.12,SE,135,1.5,2.2,78,0.00,,,0.00,WSDL version 420,2013-07-06 13:53:00,
2013-07-06 10:01:00,82.3,74.4,30.12,NE,45,0.9,2.9,76,0.00,,,0.00,WSDL version 420,2013-07-06 14:01:00,
2013-07-06 10:08:00,-999.0,-99.9,30.12,SE,135,0.0,3.6,-999,0.00,,,0.00,WSDL version 420,2013-07-06 14:08:00,
2013-07-06 10:14:00,83.1,74.6,30.12,East,90,1.9,3.6,75,0.00,,,0.00,WSDL version 420,2013-07-06 14:14:00,
2013-07-06 10:21:00,83.4,74.0,30.12,NE,45,1.0,3.6,74,0.00,,,0.00,WSDL version 420,2013-07-06 14:21:00,
2013-07-06 10:28:00,83.5,74.3,30.12,SE,135,1.5,3.1,74,-99.99,,,-99.99,WSDL version 420,2013-07-06 14:28:00,
2013-07-06 10:34:00,-999.0,-99.9,30.12,SSE,158,1.3,2.9,-999,0.00,,,0.00,WSDL version 420,2013-07-06 14:34:00,
2013-07-06 10:42:00,84.2,75.0,30.12,SE,135,0.0,2.2,74,0.00,,,0.00,WSDL version 420,2013-07-06 14:42:00,
2013-07-06 10:51:00,84.0,75.0,30.12,South,180,0.0,0.0,73,0.00,,,0.00,WSDL version 420,2013-07-06 14:51:00,
2013-07-06 10:57:00,83.9,75.0,30.12,NW,315,1.6,2.9,74,-99.99,,,-99.99,WSDL version 420,2013-07-06 14:57:00,
2013-07-06 11:04:00,84.9,75.1,30.12,SE,135,2.5,2.5,71,-99.99,,,-99.99,WSDL version 420,2013-07-06 15:04:00,
2013-07-06 11:11:00,85.5,74.6,30.12,NW,315,1.3,2.5,70,0.00,,,0.00,WSDL version 420,2013-07-06 15:11:00,
2013-07-06 11:17:00,86.1,74.5,30.12,SSE,165,3.1,3.8,68,0.00,,,0.00,WSDL version 420,2013-07-06 15:17:00,
2013-07-06 11:24:00,86.3,75.8,30.12,NNW,338,1.8,4.3,72,-99.99,,,-99.99,WSDL version 420,2013-07-06 15:24:00,
2013-07-06 11:31:00,-999.0,-99.9,30.12,SE,135,2.9,4.3,-999,0.00,,,0.00,WSDL version 420,2013-07-06 15:31:00,
2013-07-06 11:37:00,87.0,74.0,30.12,SE,135,2.0,3.1,65,-99.99,,,-99.99,WSDL version 420,2013-07-06 15:37:00,
2013-07-06 11:44:00,86.9,74.2,30.12,SE,135,2.7,2.7,66,0.00,,,0.00,WSDL version 420,2013-07-06 15:44:00,
2013-07-06 11:52:00,87.1,74.3,30.12,SSW,203,0.0,2.7,66,0.00,,,0.00,WSDL version 420,2013-07-06 15:52:00,
2013-07-06 11:59:00,-999.0,-99.9,30.12,SE,135,2.5,2.5,-999,0.00,,,0.00,WSDL version 420,2013-07-06 15:59:00,
2013-07-06 12:09:00,87.0,74.7,30.12,SW,214,0.7,2.7,67,0.00,,,0.00,WSDL version 420,2013-07-06 16:09:00,
2013-07-06 12:18:00,87.0,74.3,30.12,ENE,75,2.8,3.4,65,0.00,,,0.00,WSDL version 420,2013-07-06 16:18:00,
2013-07-06 12:26:00,87.6,73.9,30.12,ENE,68,1.6,2.5,64,0.00,,,0.00,WSDL version 420,2013-07-06 16:26:00,
2013-07-06 12:35:00,88.3,75.2,30.12,ENE,75,2.5,3.4,66,0.00,,,0.00,WSDL version 420,2013-07-06 16:35:00,
2013-07-06 12:40:00,88.8,74.3,30.12,SE,124,3.6,4.9,61,0.00,,,0.00,WSDL version 420,2013-07-06 16:40:00,
2013-07-06 12:47:00,-999.0,-99.9,30.12,ESE,113,3.1,4.9,-999,0.00,,,0.00,WSDL version 420,2013-07-06 16:47:00,
2013-07-06 12:53:00,89.3,74.7,30.12,SE,135,3.1,3.1,61,-99.99,,,-99.99,WSDL version 420,2013-07-06 16:53:00,
2013-07-06 13:02:00,89.6,73.7,30.12,ESE,113,3.6,4.0,60,0.00,,,0.00,WSDL version 420,2013-07-06 17:02:00,
2013-07-06 13:09:00,89.7,75.4,30.12,SSE,158,0.0,3.6,61,0.00,,,0.00,WSDL version 420,2013-07-06 17:09:00,
2013-07-06 13:17:00,88.6,73.9,30.12,SE,144,1.0,2.9,62,0.00,,,0.00,WSDL version 420,2013-07-06 17:17:00,
2013-07-06 13:24:00,88.3,74.1,30.12,SSE,165,0.4,2.9,63,0.00,,,0.00,WSDL version 420,2013-07-06 17:24:00,
2013-07-06 13:29:00,87.7,73.8,30.12,South,189,1.6,2.7,64,0.00,,,0.00,WSDL version 420,2013-07-06 17:29:00,
2013-07-06 13:36:00,87.8,74.1,30.12,South,180,0.0,2.7,64,0.00,,,0.00,WSDL version 420,2013-07-06 17:36:00,
2013-07-06 13:49:00,88.4,74.7,30.12,SE,135,1.1,2.2,63,0.00,,,0.00,WSDL version 420,2013-07-06 17:49:00,
2013-07-06 13:54:00,89.1,74.8,30.12,SE,131,1.8,4.0,63,0.00,,,0.00,WSDL version 420,2013-07-06 17:54:00,
2013-07-06 14:02:00,89.4,74.5,30.09,South,180,0.0,2.0,63,0.00,,,0.00,WSDL version 420,2013-07-06 18:02:00,
2013-07-06 14:11:00,89.4,74.7,30.09,South,180,0.0,0.0,63,0.00,,,0.00,WSDL version 420,2013-07-06 18:11:00,
2013-07-06 14:21:00,90.0,73.9,30.09,ESE,113,0.0,2.5,59,0.00,,,0.00,WSDL version 420,2013-07-06 18:21:00,
2013-07-06 14:27:00,90.6,75.1,30.09,SE,135,2.5,2.5,60,0.00,,,0.00,WSDL version 420,2013-07-06 18:27:00,
2013-07-06 14:33:00,90.2,73.7,30.09,NW,326,0.0,2.9,59,-99.99,,,-99.99,WSDL version 420,2013-07-06 18:33:00,
2013-07-06 14:39:00,90.9,73.5,30.09,SSW,203,1.1,2.9,55,0.00,,,0.00,WSDL version 420,2013-07-06 18:39:00,
2013-07-06 14:46:00,90.4,74.0,30.09,WSW,248,1.3,2.7,60,-99.99,,,-99.99,WSDL version 420,2013-07-06 18:46:00,
2013-07-06 14:54:00,90.2,72.9,30.09,East,101,2.3,3.8,56,0.00,,,0.00,WSDL version 420,2013-07-06 18:54:00,
2013-07-06 15:03:00,89.7,73.3,30.09,West,270,1.9,2.9,59,0.00,,,0.00,WSDL version 420,2013-07-06 19:03:00,
2013-07-06 15:08:00,89.2,72.7,30.09,SW,225,2.7,5.8,58,0.00,,,0.00,WSDL version 420,2013-07-06 19:08:00,
2013-07-06 15:15:00,89.1,73.4,-100.00,ESE,113,0.7,5.8,60,0.00,,,0.00,WSDL version 420,2013-07-06 19:15:00,
2013-07-06 15:20:00,89.0,73.3,30.09,North,360,0.0,2.7,61,0.00,,,0.00,WSDL version 420,2013-07-06 19:20:00,
2013-07-06 15:26:00,88.4,73.5,30.09,North,349,0.6,1.1,59,0.00,,,0.00,WSDL version 420,2013-07-06 19:26:00,
2013-07-06 15:36:00,88.4,73.2,30.09,West,270,2.2,2.2,63,0.00,,,0.00,WSDL version 420,2013-07-06 19:36:00,
2013-07-06 15:43:00,87.6,74.2,30.09,SW,218,0.0,3.1,66,0.00,,,0.00,WSDL version 420,2013-07-06 19:43:00,
2013-07-06 15:52:00,88.0,72.1,30.09,SW,225,0.7,1.3,57,0.00,,,0.00,WSDL version 420,2013-07-06 19:52:00,
2013-07-06 15:58:00,88.1,72.4,30.09,South,180,2.1,2.7,61,0.00,,,0.00,WSDL version 420,2013-07-06 19:58:00,
2013-07-06 16:07:00,88.2,72.8,30.09,SSE,158,1.1,2.7,63,0.00,,,0.00,WSDL version 420,2013-07-06 20:07:00,
2013-07-06 16:15:00,86.8,74.1,30.09,SW,225,0.7,1.1,67,0.00,,,0.00,WSDL version 420,2013-07-06 20:15:00,
2013-07-06 16:22:00,86.7,74.5,30.09,South,191,2.3,2.5,67,0.00,,,0.00,WSDL version 420,2013-07-06 20:22:00,
2013-07-06 16:29:00,86.5,73.3,30.06,SSW,203,2.9,2.9,65,0.00,,,0.00,WSDL version 420,2013-07-06 20:29:00,
2013-07-06 16:34:00,86.0,74.2,30.06,East,90,1.3,2.9,68,0.00,,,0.00,WSDL version 420,2013-07-06 20:34:00,
2013-07-06 16:43:00,85.6,73.9,30.06,ENE,68,0.9,2.9,68,0.00,,,0.00,WSDL version 420,2013-07-06 20:43:00,
2013-07-06 16:49:00,85.7,74.2,30.06,West,281,0.0,0.9,70,0.00,,,0.00,WSDL version 420,2013-07-06 20:49:00,
2013-07-06 16:58:00,85.0,73.3,30.06,NE,51,0.0,0.0,68,0.00,,,0.00,WSDL version 420,2013-07-06 20:58:00,
2013-07-06 17:05:00,84.6,73.4,30.06,West,270,0.0,0.0,69,0.00,,,0.00,WSDL version 420,2013-07-06 21:05:00,
2013-07-06 17:12:00,84.2,74.2,30.06,West,270,0.0,0.0,73,-99.99,,,-99.99,WSDL version 420,2013-07-06 21:12:00,
2013-07-06 17:17:00,84.7,74.8,30.06,West,270,0.0,0.0,73,0.00,,,0.00,WSDL version 420,2013-07-06 21:17:00,
2013-07-06 17:24:00,84.0,74.2,30.06,West,270,0.0,0.0,73,0.00,,,0.00,WSDL version 420,2013-07-06 21:24:00,
2013-07-06 17:36:00,83.3,74.3,30.06,South,191,0.0,0.0,75,0.00,,,0.00,WSDL version 420,2013-07-06 21:36:00,
2013-07-06 17:47:00,82.9,73.9,30.06,SW,225,0.0,0.0,75,0.00,,,0.00,WSDL version 420,2013-07-06 21:47:00,
2013-07-06 17:52:00,82.5,73.8,30.06,SSW,210,0.0,0.0,75,0.00,,,0.00,WSDL version 420,2013-07-06 21:52:00,
2013-07-06 17:59:00,82.1,73.4,30.06,West,270,0.0,0.0,75,0.00,,,0.00,WSDL version 420,2013-07-06 21:59:00,
2013-07-06 18:12:00,81.5,73.6,30.03,West,270,0.0,0.0,77,0.00,,,0.00,WSDL version 420,2013-07-06 22:12:00,
2013-07-06 18:21:00,81.3,73.4,30.03,West,270,0.0,0.0,77,0.00,,,0.00,WSDL version 420,2013-07-06 22:21:00,
2013-07-06 18:26:00,81.1,73.4,30.03,West,270,0.0,0.0,78,0.00,,,0.00,WSDL version 420,2013-07-06 22:26:00,
2013-07-06 18:33:00,80.9,73.6,30.03,West,270,0.0,0.0,79,0.00,,,0.00,WSDL version 420,2013-07-06 22:33:00,
2013-07-06 18:46:00,80.8,73.5,30.03,West,270,0.0,0.0,78,0.00,,,0.00,WSDL version 420,2013-07-06 22:46:00,
2013-07-06 18:53:00,80.5,73.6,30.03,West,270,0.0,0.0,80,0.00,,,0.00,WSDL version 420,2013-07-06 22:53:00,
2013-07-06 19:00:00,80.2,73.6,30.03,West,270,0.0,0.0,81,0.00,,,0.00,WSDL version 420,2013-07-06 23:00:00,
2013-07-06 19:09:00,80.4,74.5,30.03,West,270,0.0,0.0,82,0.00,,,0.00,WSDL version 420,2013-07-06 23:09:00,
2013-07-06 19:16:00,80.3,74.4,30.03,West,270,0.0,0.0,82,0.00,,,0.00,WSDL version 420,2013-07-06 23:16:00,
2013-07-06 19:23:00,80.2,74.6,30.03,West,270,0.0,0.0,83,0.00,,,0.00,WSDL version 420,2013-07-06 23:23:00,
2013-07-06 19:29:00,-999.0,-99.9,30.03,West,270,0.0,0.0,-999,-99.99,,,-99.99,WSDL version 420,2013-07-06 23:29:00,
2013-07-06 19:37:00,79.8,74.1,30.03,West,270,0.0,0.0,83,0.00,,,0.00,WSDL version 420,2013-07-06 23:37:00,
2013-07-06 19:44:00,-999.0,-99.9,30.03,West,270,0.0,0.0,-999,-99.99,,,-99.99,WSDL version 420,2013-07-06 23:44:00,
2013-07-06 19:54:00,79.3,73.8,30.03,West,270,0.0,0.0,83,0.00,,,0.00,WSDL version 420,2013-07-06 23:54:00,
2013-07-06 20:01:00,79.0,73.9,30.03,West,270,0.0,0.0,84,0.00,,,0.00,WSDL version 420,2013-07-07 00:01:00,
2013-07-06 20:08:00,78.7,73.4,30.03,West,270,0.0,0.0,84,0.00,,,0.00,WSDL version 420,2013-07-07 00:08:00,
2013-07-06 20:15:00,78.5,73.8,30.03,West,270,0.0,0.0,86,0.00,,,0.00,WSDL version 420,2013-07-07 00:15:00,
2013-07-06 20:21:00,78.2,73.5,30.03,West,270,0.0,0.0,86,0.00,,,0.00,WSDL version 420,2013-07-07 00:21:00,
2013-07-06 20:28:00,78.0,73.3,30.03,West,270,0.0,0.0,86,0.00,,,0.00,WSDL version 420,2013-07-07 00:28:00,
2013-07-06 20:36:00,77.7,73.1,30.03,West,270,0.0,0.0,87,0.00,,,0.00,WSDL version 420,2013-07-07 00:36:00,
2013-07-06 20:43:00,77.5,73.0,30.06,West,270,0.0,0.0,86,0.00,,,0.00,WSDL version 420,2013-07-07 00:43:00,
2013-07-06 20:53:00,77.1,72.7,30.06,West,270,0.0,0.0,87,0.00,,,0.00,WSDL version 420,2013-07-07 00:53:00,
2013-07-06 21:00:00,76.9,73.0,30.06,West,270,0.0,0.0,88,-99.99,,,-99.99,WSDL version 420,2013-07-07 01:00:00,
2013-07-06 21:09:00,76.6,72.7,30.06,West,270,0.0,0.0,88,0.00,,,0.00,WSDL version 420,2013-07-07 01:09:00,
2013-07-06 21:16:00,76.3,72.8,30.06,West,270,0.0,0.0,89,0.00,,,0.00,WSDL version 420,2013-07-07 01:16:00,
2013-07-06 21:23:00,76.3,72.8,30.06,West,270,0.0,0.0,89,0.00,,,0.00,WSDL version 420,2013-07-07 01:23:00,
2013-07-06 21:30:00,76.2,72.7,30.06,West,270,0.0,0.0,89,0.00,,,0.00,WSDL version 420,2013-07-07 01:30:00,
2013-07-06 21:40:00,75.9,72.8,30.06,West,270,0.0,0.0,90,0.00,,,0.00,WSDL version 420,2013-07-07 01:40:00,
2013-07-06 21:47:00,75.8,72.7,30.06,West,270,0.0,0.0,90,0.00,,,0.00,WSDL version 420,2013-07-07 01:47:00,
2013-07-06 21:56:00,75.7,72.8,30.06,West,270,0.0,0.0,91,0.00,,,0.00,WSDL version 420,2013-07-07 01:56:00,
2013-07-06 22:03:00,75.6,72.4,30.09,West,270,0.0,0.0,90,0.00,,,0.00,WSDL version 420,2013-07-07 02:03:00,
2013-07-06 22:09:00,75.6,72.8,30.09,West,270,0.0,0.0,91,-99.99,,,-99.99,WSDL version 420,2013-07-07 02:09:00,
2013-07-06 22:15:00,75.4,72.6,30.09,West,270,0.0,0.0,91,0.00,,,0.00,WSDL version 420,2013-07-07 02:15:00,
2013-07-06 22:24:00,75.1,72.4,30.09,West,270,0.0,0.0,91,0.00,,,0.00,WSDL version 420,2013-07-07 02:24:00,
2013-07-06 22:33:00,75.0,72.3,30.09,West,270,0.0,0.0,91,0.00,,,0.00,WSDL version 420,2013-07-07 02:33:00,
2013-07-06 22:39:00,75.0,72.2,30.09,West,270,0.0,0.0,91,0.00,,,0.00,WSDL version 420,2013-07-07 02:39:00,
2013-07-06 22:46:00,75.0,72.3,30.09,West,270,0.0,0.0,91,0.00,,,0.00,WSDL version 420,2013-07-07 02:46:00,
2013-07-06 22:54:00,75.0,72.2,30.09,West,270,0.0,0.0,91,0.00,,,0.00,WSDL version 420,2013-07-07 02:54:00,
2013-07-06 23:01:00,-999.0,-99.9,30.09,West,270,0.0,0.0,-999,-99.99,,,-99.99,WSDL version 420,2013-07-07 03:01:00,
2013-07-06 23:08:00,74.4,71.6,30.09,West,270,0.0,0.0,91,0.00,,,0.00,WSDL version 420,2013-07-07 03:08:00,
2013-07-06 23:16:00,-999.0,-99.9,30.09,West,270,0.0,0.0,-999,0.00,,,0.00,WSDL version 420,2013-07-07 03:16:00,
2013-07-06 23:24:00,74.4,71.8,30.09,West,270,0.0,0.0,92,0.00,,,0.00,WSDL version 420,2013-07-07 03:24:00,
2013-07-06 23:34:00,74.2,71.6,30.09,West,270,0.0,0.0,91,0.00,,,0.00,WSDL version 420,2013-07-07 03:34:00,
2013-07-06 23:43:00,74.1,71.5,30.09,West,270,0.0,0.0,92,0.00,,,0.00,WSDL version 420,2013-07-07 03:43:00,
2013-07-06 23:50:00,-999.0,-99.9,30.09,West,270,0.0,0.0,-999,0.00,,,0.00,WSDL version 420,2013-07-07 03:50:00,
2013-07-06 23:55:00,73.9,71.5,30.09,West,270,0.0,0.0,92,0.00,,,0.00,WSDL version 420,2013-07-07 03:55:00,